createdAt,value
2024-02-16T00:02:03.981Z,13.50
2024-02-16T00:04:32.347Z,14.70
2024-02-16T00:07:00.673Z,15.00
2024-02-16T00:09:28.999Z,12.50
2024-02-16T00:11:57.223Z,13.30
2024-02-16T00:14:25.316Z,12.80
2024-02-16T00:16:53.442Z,12.60
2024-02-16T00:19:21.508Z,12.10
2024-02-16T00:21:49.468Z,12.60
2024-02-16T00:24:17.372Z,12.90
2024-02-16T00:26:46.847Z,13.60
2024-02-16T00:29:15.092Z,13.30
2024-02-16T00:31:43.141Z,13.10
2024-02-16T00:34:11.744Z,13.00
2024-02-16T00:36:39.948Z,13.30
2024-02-16T00:39:07.996Z,11.10
2024-02-16T00:41:36.409Z,11.60
2024-02-16T00:44:04.744Z,13.50
2024-02-16T00:46:33.659Z,15.30
2024-02-16T00:49:02.886Z,12.10
2024-02-16T00:51:31.173Z,13.40
2024-02-16T00:53:59.164Z,12.10
2024-02-16T00:56:27.185Z,11.70
2024-02-16T00:58:55.197Z,13.50
2024-02-16T01:01:24.058Z,13.50
2024-02-16T01:03:53.295Z,12.60
2024-02-16T01:06:21.447Z,13.10
2024-02-16T01:08:49.725Z,12.60
2024-02-16T01:11:19.118Z,10.50
2024-02-16T01:13:47.701Z,12.80
2024-02-16T01:16:18.940Z,12.30
2024-02-16T01:18:47.182Z,14.00
2024-02-16T01:21:15.413Z,13.10
2024-02-16T01:23:43.554Z,17.80
2024-02-16T01:26:11.596Z,14.20
2024-02-16T01:28:39.608Z,11.80
2024-02-16T01:31:08.221Z,11.80
2024-02-16T01:33:37.145Z,12.60
2024-02-16T01:36:23.708Z,12.80
2024-02-16T01:38:51.809Z,14.20
2024-02-16T01:41:19.980Z,13.70
2024-02-16T01:43:53.153Z,13.40
2024-02-16T01:46:21.147Z,12.90
2024-02-16T01:48:49.276Z,13.40
2024-02-16T01:51:17.467Z,13.20
2024-02-16T01:53:46.314Z,15.50
2024-02-16T01:56:17.090Z,12.40
2024-02-16T01:58:44.963Z,14.10
2024-02-16T02:01:13.132Z,12.30
2024-02-16T02:03:43.952Z,14.70
2024-02-16T02:06:12.227Z,15.50
2024-02-16T02:08:40.415Z,12.00
2024-02-16T02:11:08.346Z,13.40
2024-02-16T02:13:36.529Z,14.80
2024-02-16T02:16:06.019Z,12.50
2024-02-16T02:18:34.033Z,11.20
2024-02-16T02:21:02.287Z,14.20
2024-02-16T02:23:30.276Z,14.00
2024-02-16T02:25:58.306Z,11.70
2024-02-16T02:28:26.277Z,12.50
2024-02-16T02:30:54.795Z,13.10
2024-02-16T02:33:23.136Z,11.50
2024-02-16T02:35:51.340Z,12.50
2024-02-16T02:38:19.493Z,14.00
2024-02-16T02:40:47.399Z,12.80
2024-02-16T02:43:15.410Z,11.00
2024-02-16T02:45:43.348Z,13.70
2024-02-16T02:48:11.378Z,12.70
2024-02-16T02:50:39.696Z,11.80
2024-02-16T02:53:07.876Z,11.60
2024-02-16T02:55:35.746Z,11.20
2024-02-16T02:58:07.088Z,12.50
2024-02-16T03:00:35.199Z,10.60
2024-02-16T03:03:03.508Z,11.10
2024-02-16T03:05:31.622Z,12.20
2024-02-16T03:08:00.267Z,10.00
2024-02-16T03:10:28.326Z,11.50
2024-02-16T03:12:56.409Z,10.80
2024-02-16T03:15:24.390Z,11.10
2024-02-16T03:17:52.439Z,11.30
2024-02-16T03:20:20.454Z,11.00
2024-02-16T03:22:49.519Z,10.50
2024-02-16T03:25:17.654Z,10.70
2024-02-16T03:27:46.715Z,9.90
2024-02-16T03:30:14.982Z,11.10
2024-02-16T03:32:43.063Z,11.00
2024-02-16T03:35:11.139Z,11.30
2024-02-16T03:37:41.131Z,9.50
2024-02-16T03:40:11.139Z,9.70
2024-02-16T03:42:39.100Z,10.10
2024-02-16T03:45:07.826Z,8.90
2024-02-16T03:47:35.910Z,9.60
2024-02-16T03:50:04.614Z,11.10
2024-02-16T03:52:32.670Z,9.90
2024-02-16T03:55:01.029Z,11.10
2024-02-16T03:57:29.075Z,10.40
2024-02-16T03:59:57.216Z,10.80
2024-02-16T04:02:25.341Z,8.30
2024-02-16T04:04:53.449Z,9.70
2024-02-16T04:07:21.414Z,9.30
2024-02-16T04:09:49.317Z,9.30
2024-02-16T04:12:17.339Z,11.90
2024-02-16T04:14:45.300Z,11.00
2024-02-16T04:17:13.314Z,10.50
2024-02-16T04:19:41.725Z,12.20
2024-02-16T04:22:10.030Z,10.30
2024-02-16T04:24:37.986Z,10.90
2024-02-16T04:27:08.497Z,10.40
2024-02-16T04:29:37.124Z,9.10
2024-02-16T04:32:05.268Z,9.10
2024-02-16T04:34:33.311Z,10.80
2024-02-16T04:37:01.522Z,10.00
2024-02-16T04:39:31.027Z,10.80
2024-02-16T04:41:59.516Z,10.40
2024-02-16T04:44:28.059Z,10.10
2024-02-16T04:46:55.961Z,9.80
2024-02-16T04:49:24.130Z,12.50
2024-02-16T04:51:52.089Z,11.10
2024-02-16T04:54:20.312Z,13.50
2024-02-16T04:56:48.364Z,14.00
2024-02-16T04:59:16.792Z,14.60
2024-02-16T05:01:47.990Z,12.80
2024-02-16T05:04:18.764Z,12.90
2024-02-16T05:06:53.076Z,13.40
2024-02-16T05:09:21.382Z,17.70
2024-02-16T05:11:49.609Z,15.20
2024-02-16T05:14:17.691Z,15.80
2024-02-16T05:16:46.040Z,15.50
2024-02-16T05:19:14.713Z,16.90
2024-02-16T05:21:42.703Z,18.10
2024-02-16T05:24:10.816Z,15.50
2024-02-16T05:26:39.518Z,16.70
2024-02-16T05:29:07.557Z,19.10
2024-02-16T05:31:35.413Z,18.20
2024-02-16T05:34:03.541Z,17.40
2024-02-16T06:07:10.507Z,20.70
2024-02-16T06:09:38.865Z,20.50
2024-02-16T06:12:09.099Z,19.00
2024-02-16T06:14:41.694Z,18.50
2024-02-16T06:19:45.770Z,17.50
2024-02-16T06:22:15.757Z,17.50
2024-02-16T06:24:53.118Z,19.90
2024-02-16T06:27:25.644Z,17.90
2024-02-16T06:29:57.560Z,19.40
2024-02-16T06:32:33.156Z,18.60
2024-02-16T06:35:12.902Z,16.20
2024-02-16T06:37:44.175Z,16.30
2024-02-16T06:58:19.930Z,13.30
2024-02-16T07:00:49.805Z,11.80
2024-02-16T07:03:17.859Z,16.20
2024-02-16T07:05:45.873Z,13.40
2024-02-16T07:08:13.767Z,14.80
2024-02-16T07:10:42.034Z,15.40
2024-02-16T07:13:09.949Z,13.40
2024-02-16T07:15:38.087Z,13.70
2024-02-16T07:18:06.447Z,13.20
2024-02-16T07:20:34.554Z,10.60
2024-02-16T07:23:02.506Z,11.50
2024-02-16T07:25:30.476Z,11.90
2024-02-16T07:27:58.532Z,10.10
2024-02-16T07:30:33.651Z,11.00
2024-02-16T07:33:11.364Z,11.10
2024-02-16T07:35:39.429Z,11.20
2024-02-16T07:38:07.436Z,11.60
2024-02-16T07:40:35.427Z,10.40
2024-02-16T07:43:04.313Z,10.90
2024-02-16T07:45:32.642Z,10.50
2024-02-16T07:48:04.519Z,11.10
2024-02-16T07:50:33.191Z,9.50
2024-02-16T07:53:01.122Z,10.60
2024-02-16T07:55:29.123Z,10.30
2024-02-16T07:57:57.189Z,9.90
2024-02-16T08:00:25.163Z,10.40
2024-02-16T08:02:53.653Z,9.50
2024-02-16T08:05:21.949Z,9.10
2024-02-16T08:07:50.109Z,10.80
2024-02-16T08:10:22.170Z,10.30
2024-02-16T08:12:50.506Z,9.30
2024-02-16T08:15:24.546Z,8.40
2024-02-16T08:17:53.771Z,8.50
2024-02-16T08:20:22.439Z,10.70
2024-02-16T08:22:50.641Z,12.90
2024-02-16T08:25:18.801Z,10.40
2024-02-16T08:27:46.763Z,10.70
2024-02-16T08:30:14.924Z,10.40
2024-02-16T08:32:43.151Z,9.80
2024-02-16T08:35:11.461Z,12.50
2024-02-16T08:37:39.653Z,11.00
2024-02-16T08:40:08.484Z,8.80
2024-02-16T08:42:36.726Z,8.60
2024-02-16T08:45:05.289Z,9.10
2024-02-16T08:47:33.484Z,9.70
2024-02-16T08:50:01.740Z,8.40
2024-02-16T08:52:29.994Z,10.20
2024-02-16T08:54:58.329Z,13.50
2024-02-16T08:57:26.457Z,7.10
2024-02-16T08:59:54.538Z,9.10
2024-02-16T09:02:23.510Z,10.70
2024-02-16T09:04:51.724Z,9.80
2024-02-16T09:07:19.860Z,9.80
2024-02-16T09:09:48.191Z,8.60
2024-02-16T09:12:16.307Z,9.10
2024-02-16T09:14:44.561Z,11.60
2024-02-16T09:17:12.981Z,8.50
2024-02-16T09:19:41.042Z,10.50
2024-02-16T09:22:09.232Z,8.20
2024-02-16T09:24:38.526Z,7.20
2024-02-16T09:27:06.714Z,6.90
2024-02-16T09:29:34.863Z,7.90
2024-02-16T09:32:04.063Z,7.20
2024-02-16T09:34:32.454Z,6.30
2024-02-16T09:37:00.652Z,7.00
2024-02-16T09:39:29.650Z,6.50
2024-02-16T09:41:57.814Z,7.30
2024-02-16T09:44:26.100Z,6.60
2024-02-16T09:46:55.408Z,7.20
2024-02-16T09:49:29.064Z,7.70
2024-02-16T09:52:07.215Z,5.40
2024-02-16T09:54:39.851Z,5.10
2024-02-16T09:57:07.970Z,6.10
2024-02-16T09:59:39.071Z,6.00
2024-02-16T10:02:08.960Z,6.40
2024-02-16T10:04:37.655Z,6.40
2024-02-16T10:07:11.320Z,5.60
2024-02-16T10:09:44.349Z,6.50
2024-02-16T10:12:19.763Z,5.40
2024-02-16T10:14:56.366Z,6.50
2024-02-16T10:17:24.872Z,5.40
2024-02-16T10:20:00.690Z,7.10
2024-02-16T10:22:29.296Z,5.60
2024-02-16T10:25:13.046Z,6.70
2024-02-16T10:27:42.848Z,5.80
2024-02-16T10:30:13.470Z,6.30
2024-02-16T10:32:41.717Z,7.00
2024-02-16T10:35:10.447Z,5.50
2024-02-16T10:37:38.619Z,4.80
2024-02-16T10:40:07.878Z,5.20
2024-02-16T10:42:37.862Z,5.80
2024-02-16T10:45:06.965Z,5.30
2024-02-16T10:47:35.038Z,5.30
2024-02-16T10:50:03.638Z,4.10
2024-02-16T10:52:32.520Z,4.40
2024-02-16T10:55:00.675Z,4.90
2024-02-16T10:57:28.669Z,4.60
2024-02-16T10:59:58.063Z,7.20
2024-02-16T11:02:27.288Z,5.50
2024-02-16T11:04:55.414Z,5.00
2024-02-16T11:07:26.466Z,3.90
2024-02-16T11:09:54.705Z,5.20
2024-02-16T11:12:23.057Z,5.30
2024-02-16T11:14:56.196Z,4.20
2024-02-16T11:17:25.296Z,4.10
2024-02-16T11:19:55.840Z,4.30
2024-02-16T11:22:29.745Z,4.40
2024-02-16T11:25:01.976Z,3.70
2024-02-16T11:27:32.686Z,6.60
2024-02-16T11:30:01.680Z,5.10
2024-02-16T11:32:34.189Z,4.00
2024-02-16T11:35:09.628Z,4.20
2024-02-16T11:37:38.904Z,3.90
2024-02-16T11:40:09.977Z,4.50
2024-02-16T11:42:38.213Z,4.90
2024-02-16T11:45:07.807Z,4.70
2024-02-16T11:47:35.932Z,4.80
2024-02-16T11:50:14.829Z,4.70
2024-02-16T11:52:43.078Z,3.10
2024-02-16T11:55:12.504Z,5.10
2024-02-16T11:57:41.651Z,5.00
2024-02-16T12:00:12.588Z,3.60
2024-02-16T12:02:40.783Z,3.90
2024-02-16T12:05:09.356Z,5.10
2024-02-16T12:07:43.452Z,3.90
2024-02-16T12:10:12.627Z,3.50
2024-02-16T12:12:40.973Z,5.00
2024-02-16T12:15:09.598Z,6.10
2024-02-16T12:17:37.682Z,4.00
2024-02-16T12:20:13.675Z,3.90
2024-02-16T12:22:41.994Z,5.60
2024-02-16T12:25:09.949Z,4.30
2024-02-16T12:27:37.881Z,9.90
2024-02-16T12:30:06.509Z,3.60
2024-02-16T12:32:34.653Z,5.20
2024-02-16T12:35:07.288Z,4.00
2024-02-16T12:37:36.562Z,5.30
2024-02-16T12:40:07.642Z,5.00
2024-02-16T12:42:35.770Z,6.10
2024-02-16T12:45:04.627Z,4.10
2024-02-16T12:47:32.919Z,4.90
2024-02-16T12:50:01.438Z,4.30
2024-02-16T12:52:29.974Z,18.70
2024-02-16T12:55:00.534Z,4.30
2024-02-16T12:57:30.600Z,3.30
2024-02-16T12:59:58.707Z,4.90
2024-02-16T13:02:26.732Z,4.20
2024-02-16T13:04:55.860Z,3.20
2024-02-16T13:07:25.489Z,7.10
2024-02-16T13:09:54.049Z,6.80
2024-02-16T13:12:25.096Z,7.70
2024-02-16T13:14:53.334Z,5.40
2024-02-16T13:17:21.472Z,7.20
2024-02-16T13:19:49.629Z,4.10
2024-02-16T13:22:17.772Z,5.00
2024-02-16T13:24:54.990Z,4.00
2024-02-16T13:27:40.887Z,6.10
2024-02-16T13:30:12.275Z,4.90
2024-02-16T13:32:41.622Z,5.20
2024-02-16T13:35:09.957Z,5.40
2024-02-16T13:37:38.360Z,5.10
2024-02-16T13:40:08.590Z,5.30
2024-02-16T14:21:16.173Z,4.00
2024-02-16T14:23:44.923Z,6.20
2024-02-16T14:26:12.826Z,5.40
2024-02-16T14:28:40.772Z,5.30
2024-02-16T14:31:09.893Z,7.10
2024-02-16T14:33:38.029Z,6.00
2024-02-16T14:36:06.858Z,4.50
2024-02-16T14:38:34.805Z,6.60
2024-02-16T14:41:06.899Z,6.00
2024-02-16T14:43:34.952Z,5.10
2024-02-16T14:46:05.504Z,6.10
2024-02-16T14:48:34.042Z,5.60
2024-02-16T14:51:02.176Z,4.90
2024-02-16T14:53:34.382Z,4.50
2024-02-16T14:56:04.715Z,5.00
2024-02-16T14:58:34.207Z,5.50
2024-02-16T15:01:07.495Z,6.30
2024-02-16T15:03:36.092Z,7.30
2024-02-16T15:06:04.502Z,5.30
2024-02-16T15:08:32.502Z,4.90
2024-02-16T15:11:01.142Z,4.80
2024-02-16T15:13:32.012Z,4.70
2024-02-16T15:16:00.315Z,7.50
2024-02-16T15:18:28.398Z,5.30
2024-02-16T15:20:56.420Z,6.80
2024-02-16T15:23:24.371Z,6.50
2024-02-16T15:25:52.382Z,4.70
2024-02-16T15:28:20.397Z,6.00
2024-02-16T15:30:48.512Z,6.00
2024-02-16T15:33:17.505Z,6.00
2024-02-16T15:35:45.522Z,5.50
2024-02-16T15:38:13.571Z,6.20
2024-02-16T15:40:41.600Z,5.90
2024-02-16T15:43:11.713Z,6.80
2024-02-16T15:45:42.007Z,7.70
2024-02-16T15:48:11.308Z,7.90
2024-02-16T15:50:42.458Z,7.00
2024-02-16T15:53:10.490Z,7.40
2024-02-16T15:55:38.503Z,6.10
2024-02-16T15:58:06.610Z,7.60
2024-02-16T16:00:34.554Z,5.70
2024-02-16T16:03:02.791Z,7.50
2024-02-16T16:05:31.534Z,6.80
2024-02-16T16:07:59.919Z,9.30
2024-02-16T16:10:27.901Z,9.70
2024-02-16T16:12:56.239Z,8.50
2024-02-16T16:15:24.313Z,7.90
2024-02-16T16:17:52.472Z,8.00
2024-02-16T16:20:20.710Z,15.10
2024-02-16T16:22:48.715Z,8.50
2024-02-16T16:25:16.915Z,6.40
2024-02-16T16:27:48.681Z,8.80
2024-02-16T16:30:17.148Z,9.60
2024-02-16T16:32:45.382Z,7.60
2024-02-16T16:35:14.048Z,7.00
2024-02-16T16:37:42.387Z,6.00
2024-02-16T16:40:13.919Z,8.70
2024-02-16T16:42:42.087Z,9.00
2024-02-16T16:45:12.854Z,7.50
2024-02-16T16:47:41.173Z,8.10
2024-02-16T16:50:09.532Z,8.70
2024-02-16T16:52:39.672Z,9.50
2024-02-16T16:55:08.192Z,7.30
2024-02-16T16:57:36.318Z,8.30
2024-02-16T17:00:06.539Z,7.80
2024-02-16T17:02:34.947Z,8.80
2024-02-16T17:05:03.340Z,10.90
2024-02-16T17:07:32.944Z,8.10
2024-02-16T17:10:01.191Z,7.60
2024-02-16T17:12:29.422Z,10.50
2024-02-16T17:14:57.947Z,8.00
2024-02-16T17:17:25.965Z,7.70
2024-02-16T17:19:53.979Z,9.80
2024-02-16T17:22:22.004Z,7.40
2024-02-16T17:24:50.115Z,8.60
2024-02-16T17:27:20.371Z,8.30
2024-02-16T17:29:48.495Z,10.00
2024-02-16T17:32:16.474Z,7.40
2024-02-16T17:34:44.568Z,7.50
2024-02-16T17:37:12.860Z,7.60
2024-02-16T17:39:44.026Z,7.70
2024-02-16T17:42:12.628Z,10.00
2024-02-16T17:44:40.693Z,7.80
2024-02-16T17:47:08.630Z,10.30
2024-02-16T17:49:36.725Z,9.20
2024-02-16T17:52:05.063Z,11.30
2024-02-16T17:54:33.225Z,9.40
2024-02-16T17:57:03.058Z,9.50
2024-02-16T17:59:31.042Z,8.80
2024-02-16T18:01:59.104Z,8.60
2024-02-16T18:04:27.104Z,9.70
2024-02-16T18:06:55.075Z,11.10
2024-02-16T18:09:23.521Z,10.10
2024-02-16T18:11:51.511Z,12.10
2024-02-16T18:14:19.631Z,13.20
2024-02-16T18:16:48.044Z,8.60
2024-02-16T18:19:17.109Z,12.00
2024-02-16T18:21:45.310Z,10.40
2024-02-16T18:24:13.519Z,9.70
2024-02-16T18:26:41.520Z,8.70
2024-02-16T18:29:10.088Z,9.80
2024-02-16T18:31:38.751Z,11.00
2024-02-16T18:34:07.090Z,8.80
2024-02-16T18:36:35.144Z,9.60
2024-02-16T18:39:03.473Z,9.80
2024-02-16T18:41:31.709Z,8.30
2024-02-16T18:43:59.856Z,11.30
2024-02-16T18:46:27.918Z,11.10
2024-02-16T18:48:56.225Z,8.10
2024-02-16T18:51:24.431Z,11.90
2024-02-16T18:53:53.512Z,12.60
2024-02-16T18:56:21.469Z,9.70
2024-02-16T18:58:49.375Z,12.00
2024-02-16T19:01:19.866Z,8.00
2024-02-16T19:03:49.906Z,10.50
2024-02-16T19:06:18.423Z,11.20
2024-02-16T19:08:46.624Z,9.20
2024-02-16T19:11:14.815Z,8.10
2024-02-16T19:13:42.742Z,10.40
2024-02-16T19:16:11.154Z,10.90
2024-02-16T19:18:39.405Z,9.30
2024-02-16T19:21:08.945Z,12.20
2024-02-16T19:23:38.213Z,12.00
2024-02-16T19:26:07.144Z,10.50
2024-02-16T19:28:39.735Z,8.00
2024-02-16T19:31:09.472Z,9.30
2024-02-16T19:33:38.269Z,11.40
2024-02-16T19:36:07.679Z,11.20
2024-02-16T19:38:37.636Z,9.30
2024-02-16T19:41:06.001Z,11.80
2024-02-16T19:43:34.119Z,11.40
2024-02-16T19:46:04.299Z,10.90
2024-02-16T19:48:32.870Z,12.70
2024-02-16T19:51:01.221Z,10.70
2024-02-16T19:53:29.505Z,12.30
2024-02-16T19:55:57.674Z,8.70
2024-02-16T19:58:27.496Z,13.40
2024-02-16T20:00:56.172Z,11.10
2024-02-16T20:03:24.409Z,11.50
2024-02-16T20:05:57.674Z,10.40
2024-02-16T20:08:26.187Z,12.40
2024-02-16T20:10:54.265Z,10.70
2024-02-16T20:13:22.397Z,10.30
2024-02-16T20:15:51.936Z,9.30
2024-02-16T20:18:27.981Z,12.10
2024-02-16T20:20:56.871Z,11.80
2024-02-16T20:23:24.912Z,10.80
2024-02-16T20:25:52.977Z,10.20
2024-02-16T20:28:20.983Z,12.60
2024-02-16T20:30:49.033Z,11.60
2024-02-16T20:33:18.642Z,11.00
2024-02-16T20:35:48.338Z,8.40
2024-02-16T20:38:16.221Z,9.40
2024-02-16T20:40:44.991Z,10.20
2024-02-16T20:43:13.029Z,8.60
2024-02-16T20:45:41.136Z,10.60
2024-02-16T20:48:09.295Z,8.30
2024-02-16T20:50:38.537Z,7.60
2024-02-16T20:53:06.717Z,11.60
2024-02-16T20:55:34.809Z,9.70
2024-02-16T20:58:04.514Z,8.90
2024-02-16T21:00:32.463Z,9.60
2024-02-16T21:03:00.782Z,10.50
2024-02-16T21:05:29.869Z,8.40
2024-02-16T21:07:58.270Z,8.60
2024-02-16T21:10:26.502Z,9.10
2024-02-16T21:12:54.995Z,7.40
2024-02-16T21:15:24.521Z,8.40
2024-02-16T21:17:53.590Z,9.60
2024-02-16T21:20:21.945Z,10.10
2024-02-16T21:22:49.987Z,9.10
2024-02-16T21:25:18.174Z,11.70
2024-02-16T21:27:46.264Z,10.10
2024-02-16T21:30:14.905Z,10.90
2024-02-16T21:32:43.301Z,10.30
2024-02-16T21:35:13.008Z,9.10
2024-02-16T21:37:40.998Z,8.70
2024-02-16T21:40:10.570Z,8.10
2024-02-16T21:42:38.655Z,8.40
2024-02-16T21:45:10.143Z,8.80
2024-02-16T21:47:38.996Z,6.00
2024-02-16T21:50:07.753Z,9.20
2024-02-16T21:52:35.973Z,7.10
2024-02-16T21:55:04.277Z,6.80
2024-02-16T21:57:32.288Z,6.50
2024-02-16T22:00:00.314Z,5.90
2024-02-16T22:02:28.495Z,7.30
2024-02-16T22:04:56.505Z,6.10
2024-02-16T22:07:24.770Z,6.40
2024-02-16T22:09:52.914Z,6.80
2024-02-16T22:12:20.982Z,5.70
2024-02-16T22:14:49.170Z,7.50
2024-02-16T22:17:17.407Z,7.10
2024-02-16T22:19:45.712Z,10.20
2024-02-16T22:22:15.682Z,7.10
2024-02-16T22:24:44.089Z,5.20
2024-02-16T22:27:12.119Z,6.00
2024-02-16T22:29:40.123Z,6.20
2024-02-16T22:32:16.644Z,6.10
2024-02-16T22:34:46.601Z,6.50
2024-02-16T22:37:14.618Z,5.10
2024-02-16T22:39:42.498Z,5.40
2024-02-16T22:42:10.602Z,6.00
2024-02-16T22:44:38.566Z,6.40
2024-02-16T22:47:06.471Z,6.50
2024-02-16T22:49:34.896Z,6.50
2024-02-16T22:52:03.085Z,6.70
2024-02-16T22:54:31.092Z,7.70
2024-02-16T22:56:59.166Z,4.40
2024-02-16T22:59:27.550Z,7.90
2024-02-16T23:01:58.591Z,6.80
2024-02-16T23:04:26.831Z,5.70
2024-02-16T23:06:55.164Z,6.10
2024-02-16T23:09:23.799Z,5.10
2024-02-16T23:11:53.178Z,5.50
2024-02-16T23:14:21.241Z,5.10
2024-02-16T23:16:49.200Z,6.00
2024-02-16T23:19:17.748Z,7.10
2024-02-16T23:21:47.861Z,7.50
2024-02-16T23:24:15.877Z,5.10
2024-02-16T23:26:43.849Z,5.40
2024-02-16T23:29:12.658Z,5.80
2024-02-16T23:31:40.549Z,6.10
2024-02-16T23:34:08.565Z,6.10
2024-02-16T23:36:36.574Z,5.70
2024-02-16T23:39:04.826Z,6.10
2024-02-16T23:41:33.138Z,5.60
2024-02-16T23:44:02.691Z,7.60
2024-02-16T23:46:35.369Z,7.30
2024-02-16T23:49:04.848Z,6.50
2024-02-16T23:51:32.923Z,7.90
2024-02-16T23:54:00.987Z,6.10
2024-02-16T23:56:28.911Z,7.70
2024-02-16T23:58:56.796Z,4.90
